sensor_id;sensor_type;location;lat;lon;timestamp;P1;durP1;ratioP1;P2;durP2;ratioP2
7761;SDS011;3925;48.636;9.516;2023-02-24T00:01:59;15.90;;;9.60;;
7761;SDS011;3925;48.636;9.516;2023-02-24T00:04:29;12.57;;;11.27;;
7761;SDS011;3925;48.636;9.516;2023-02-24T00:06:58;17.20;;;11.20;;
7761;SDS011;3925;48.636;9.516;2023-02-24T00:09:28;16.73;;;10.80;;
7761;SDS011;3925;48.636;9.516;2023-02-24T00:11:56;14.93;;;11.07;;
7761;SDS011;3925;48.636;9.516;2023-02-24T00:14:25;13.50;;;11.30;;
7761;SDS011;3925;48.636;9.516;2023-02-24T00:16:54;10.10;;;9.10;;
7761;SDS011;3925;48.636;9.516;2023-02-24T00:19:22;12.70;;;10.93;;
7761;SDS011;3925;48.636;9.516;2023-02-24T00:21:50;11.47;;;10.33;;
7761;SDS011;3925;48.636;9.516;2023-02-24T00:24:18;12.07;;;10.23;;
7761;SDS011;3925;48.636;9.516;2023-02-24T00:26:51;15.83;;;11.00;;
7761;SDS011;3925;48.636;9.516;2023-02-24T00:29:19;11.20;;;9.17;;
7761;SDS011;3925;48.636;9.516;2023-02-24T00:31:48;13.27;;;11.87;;
7761;SDS011;3925;48.636;9.516;2023-02-24T00:34:20;12.07;;;9.47;;
7761;SDS011;3925;48.636;9.516;2023-02-24T00:36:47;12.30;;;9.40;;
7761;SDS011;3925;48.636;9.516;2023-02-24T00:39:14;12.37;;;10.37;;
7761;SDS011;3925;48.636;9.516;2023-02-24T00:41:42;11.10;;;9.20;;
7761;SDS011;3925;48.636;9.516;2023-02-24T00:44:12;12.07;;;9.33;;
7761;SDS011;3925;48.636;9.516;2023-02-24T00:46:40;11.10;;;8.70;;
7761;SDS011;3925;48.636;9.516;2023-02-24T00:49:10;12.20;;;10.67;;
7761;SDS011;3925;48.636;9.516;2023-02-24T00:51:41;12.50;;;9.70;;
7761;SDS011;3925;48.636;9.516;2023-02-24T00:54:10;14.03;;;10.10;;
7761;SDS011;3925;48.636;9.516;2023-02-24T00:56:39;14.23;;;11.97;;
7761;SDS011;3925;48.636;9.516;2023-02-24T00:59:06;14.10;;;10.20;;
7761;SDS011;3925;48.636;9.516;2023-02-24T01:01:34;14.87;;;11.00;;
7761;SDS011;3925;48.636;9.516;2023-02-24T01:04:02;11.00;;;9.87;;
7761;SDS011;3925;48.636;9.516;2023-02-24T01:06:35;13.83;;;11.30;;
7761;SDS011;3925;48.636;9.516;2023-02-24T01:09:05;16.23;;;11.53;;
7761;SDS011;3925;48.636;9.516;2023-02-24T01:11:36;17.27;;;13.03;;
7761;SDS011;3925;48.636;9.516;2023-02-24T01:14:21;12.40;;;10.90;;
7761;SDS011;3925;48.636;9.516;2023-02-24T01:16:52;12.47;;;10.47;;
7761;SDS011;3925;48.636;9.516;2023-02-24T01:19:21;12.60;;;9.57;;
7761;SDS011;3925;48.636;9.516;2023-02-24T01:21:49;15.60;;;12.90;;
7761;SDS011;3925;48.636;9.516;2023-02-24T01:24:19;13.43;;;11.77;;
7761;SDS011;3925;48.636;9.516;2023-02-24T01:26:46;12.93;;;11.53;;
7761;SDS011;3925;48.636;9.516;2023-02-24T01:29:13;14.37;;;12.50;;
7761;SDS011;3925;48.636;9.516;2023-02-24T01:31:40;12.13;;;10.83;;
7761;SDS011;3925;48.636;9.516;2023-02-24T01:34:09;13.87;;;10.37;;
7761;SDS011;3925;48.636;9.516;2023-02-24T01:36:38;14.03;;;11.03;;
7761;SDS011;3925;48.636;9.516;2023-02-24T01:39:08;16.07;;;12.07;;
7761;SDS011;3925;48.636;9.516;2023-02-24T01:41:38;12.90;;;10.77;;
7761;SDS011;3925;48.636;9.516;2023-02-24T01:44:07;13.53;;;10.20;;
7761;SDS011;3925;48.636;9.516;2023-02-24T01:46:49;14.23;;;12.20;;
7761;SDS011;3925;48.636;9.516;2023-02-24T01:49:20;15.10;;;11.30;;
7761;SDS011;3925;48.636;9.516;2023-02-24T01:51:52;13.73;;;11.97;;
7761;SDS011;3925;48.636;9.516;2023-02-24T01:54:24;15.20;;;11.80;;
7761;SDS011;3925;48.636;9.516;2023-02-24T01:56:55;17.67;;;12.97;;
7761;SDS011;3925;48.636;9.516;2023-02-24T01:59:24;15.67;;;12.20;;
7761;SDS011;3925;48.636;9.516;2023-02-24T02:01:56;18.47;;;12.20;;
7761;SDS011;3925;48.636;9.516;2023-02-24T02:04:30;16.33;;;12.10;;
7761;SDS011;3925;48.636;9.516;2023-02-24T02:07:01;16.90;;;12.50;;
7761;SDS011;3925;48.636;9.516;2023-02-24T02:09:28;14.67;;;11.73;;
7761;SDS011;3925;48.636;9.516;2023-02-24T02:11:58;13.37;;;11.90;;
7761;SDS011;3925;48.636;9.516;2023-02-24T02:14:26;15.13;;;11.83;;
7761;SDS011;3925;48.636;9.516;2023-02-24T02:16:57;15.37;;;12.00;;
7761;SDS011;3925;48.636;9.516;2023-02-24T02:22:53;14.37;;;12.70;;
7761;SDS011;3925;48.636;9.516;2023-02-24T02:25:53;16.03;;;12.70;;
7761;SDS011;3925;48.636;9.516;2023-02-24T02:28:38;17.70;;;13.97;;
7761;SDS011;3925;48.636;9.516;2023-02-24T02:31:39;21.03;;;13.40;;
7761;SDS011;3925;48.636;9.516;2023-02-24T02:34:31;22.77;;;13.00;;
7761;SDS011;3925;48.636;9.516;2023-02-24T02:37:09;17.67;;;13.30;;
7761;SDS011;3925;48.636;9.516;2023-02-24T02:39:43;17.77;;;13.40;;
7761;SDS011;3925;48.636;9.516;2023-02-24T02:42:20;15.77;;;13.90;;
7761;SDS011;3925;48.636;9.516;2023-02-24T02:44:54;16.40;;;13.40;;
7761;SDS011;3925;48.636;9.516;2023-02-24T02:47:30;19.53;;;15.03;;
7761;SDS011;3925;48.636;9.516;2023-02-24T02:50:08;22.40;;;15.23;;
7761;SDS011;3925;48.636;9.516;2023-02-24T02:52:45;20.70;;;13.60;;
7761;SDS011;3925;48.636;9.516;2023-02-24T02:55:19;18.47;;;14.00;;
7761;SDS011;3925;48.636;9.516;2023-02-24T02:57:50;17.87;;;15.17;;
7761;SDS011;3925;48.636;9.516;2023-02-24T03:00:20;16.37;;;14.43;;
7761;SDS011;3925;48.636;9.516;2023-02-24T03:02:55;20.70;;;13.60;;
7761;SDS011;3925;48.636;9.516;2023-02-24T03:05:30;19.33;;;15.87;;
7761;SDS011;3925;48.636;9.516;2023-02-24T03:08:01;17.80;;;15.67;;
7761;SDS011;3925;48.636;9.516;2023-02-24T03:10:35;21.37;;;15.17;;
7761;SDS011;3925;48.636;9.516;2023-02-24T03:13:05;16.17;;;14.33;;
7761;SDS011;3925;48.636;9.516;2023-02-24T03:15:34;21.33;;;14.77;;
7761;SDS011;3925;48.636;9.516;2023-02-24T03:18:06;18.60;;;14.50;;
7761;SDS011;3925;48.636;9.516;2023-02-24T03:20:42;18.90;;;13.97;;
7761;SDS011;3925;48.636;9.516;2023-02-24T03:23:16;19.60;;;15.10;;
7761;SDS011;3925;48.636;9.516;2023-02-24T03:25:47;20.93;;;16.17;;
7761;SDS011;3925;48.636;9.516;2023-02-24T03:28:20;20.00;;;13.37;;
7761;SDS011;3925;48.636;9.516;2023-02-24T03:30:55;17.80;;;14.00;;
7761;SDS011;3925;48.636;9.516;2023-02-24T03:33:29;16.77;;;13.70;;
7761;SDS011;3925;48.636;9.516;2023-02-24T03:36:02;16.90;;;15.00;;
7761;SDS011;3925;48.636;9.516;2023-02-24T03:38:30;17.67;;;14.50;;
7761;SDS011;3925;48.636;9.516;2023-02-24T03:41:02;19.40;;;15.63;;
7761;SDS011;3925;48.636;9.516;2023-02-24T03:43:31;18.67;;;14.27;;
7761;SDS011;3925;48.636;9.516;2023-02-24T03:46:00;19.47;;;14.30;;
7761;SDS011;3925;48.636;9.516;2023-02-24T03:48:30;19.27;;;15.10;;
7761;SDS011;3925;48.636;9.516;2023-02-24T03:51:03;19.40;;;15.77;;
7761;SDS011;3925;48.636;9.516;2023-02-24T03:53:32;19.17;;;14.77;;
7761;SDS011;3925;48.636;9.516;2023-02-24T03:56:15;23.03;;;15.37;;
7761;SDS011;3925;48.636;9.516;2023-02-24T03:58:56;22.03;;;15.67;;
7761;SDS011;3925;48.636;9.516;2023-02-24T04:01:35;20.13;;;15.60;;
7761;SDS011;3925;48.636;9.516;2023-02-24T04:04:09;29.17;;;19.70;;
7761;SDS011;3925;48.636;9.516;2023-02-24T04:06:43;27.50;;;17.00;;
7761;SDS011;3925;48.636;9.516;2023-02-24T04:09:14;22.43;;;16.97;;
7761;SDS011;3925;48.636;9.516;2023-02-24T04:11:46;26.43;;;17.93;;
7761;SDS011;3925;48.636;9.516;2023-02-24T04:14:20;21.03;;;17.00;;
7761;SDS011;3925;48.636;9.516;2023-02-24T04:16:54;21.53;;;17.80;;
7761;SDS011;3925;48.636;9.516;2023-02-24T04:19:25;19.73;;;17.40;;
7761;SDS011;3925;48.636;9.516;2023-02-24T04:21:56;19.30;;;15.10;;
7761;SDS011;3925;48.636;9.516;2023-02-24T04:24:25;20.00;;;15.40;;
7761;SDS011;3925;48.636;9.516;2023-02-24T04:26:56;21.77;;;17.07;;
7761;SDS011;3925;48.636;9.516;2023-02-24T04:29:25;27.30;;;18.73;;
7761;SDS011;3925;48.636;9.516;2023-02-24T04:31:56;21.37;;;16.90;;
7761;SDS011;3925;48.636;9.516;2023-02-24T04:34:27;28.87;;;16.63;;
7761;SDS011;3925;48.636;9.516;2023-02-24T04:36:58;18.30;;;15.23;;
7761;SDS011;3925;48.636;9.516;2023-02-24T04:39:26;19.20;;;16.27;;
7761;SDS011;3925;48.636;9.516;2023-02-24T04:41:54;21.63;;;15.90;;
7761;SDS011;3925;48.636;9.516;2023-02-24T04:44:22;19.00;;;15.13;;
7761;SDS011;3925;48.636;9.516;2023-02-24T04:46:50;23.80;;;16.27;;
7761;SDS011;3925;48.636;9.516;2023-02-24T04:49:17;20.53;;;16.33;;
7761;SDS011;3925;48.636;9.516;2023-02-24T04:51:46;18.20;;;15.60;;
7761;SDS011;3925;48.636;9.516;2023-02-24T04:54:15;24.00;;;16.30;;
7761;SDS011;3925;48.636;9.516;2023-02-24T04:56:43;22.53;;;16.30;;
7761;SDS011;3925;48.636;9.516;2023-02-24T04:59:12;20.10;;;15.60;;
7761;SDS011;3925;48.636;9.516;2023-02-24T05:01:39;18.97;;;15.93;;
7761;SDS011;3925;48.636;9.516;2023-02-24T05:04:08;22.13;;;16.87;;
7761;SDS011;3925;48.636;9.516;2023-02-24T05:06:36;21.57;;;17.07;;
7761;SDS011;3925;48.636;9.516;2023-02-24T05:09:07;26.30;;;18.30;;
7761;SDS011;3925;48.636;9.516;2023-02-24T05:11:39;23.57;;;16.17;;
7761;SDS011;3925;48.636;9.516;2023-02-24T05:14:07;23.10;;;16.60;;
7761;SDS011;3925;48.636;9.516;2023-02-24T05:16:34;20.10;;;16.00;;
7761;SDS011;3925;48.636;9.516;2023-02-24T05:19:02;21.37;;;14.87;;
7761;SDS011;3925;48.636;9.516;2023-02-24T05:21:46;19.37;;;14.57;;
7761;SDS011;3925;48.636;9.516;2023-02-24T05:24:13;17.93;;;13.57;;
7761;SDS011;3925;48.636;9.516;2023-02-24T05:26:42;20.10;;;15.50;;
7761;SDS011;3925;48.636;9.516;2023-02-24T05:29:09;18.60;;;14.73;;
7761;SDS011;3925;48.636;9.516;2023-02-24T05:31:37;16.93;;;13.37;;
7761;SDS011;3925;48.636;9.516;2023-02-24T05:34:04;16.40;;;13.63;;
7761;SDS011;3925;48.636;9.516;2023-02-24T05:36:33;16.53;;;13.00;;
7761;SDS011;3925;48.636;9.516;2023-02-24T05:39:03;23.33;;;14.17;;
7761;SDS011;3925;48.636;9.516;2023-02-24T05:41:32;19.07;;;14.40;;
7761;SDS011;3925;48.636;9.516;2023-02-24T05:44:04;18.13;;;13.57;;
7761;SDS011;3925;48.636;9.516;2023-02-24T05:46:34;17.57;;;12.67;;
7761;SDS011;3925;48.636;9.516;2023-02-24T05:49:03;15.97;;;11.77;;
7761;SDS011;3925;48.636;9.516;2023-02-24T05:51:33;17.77;;;13.30;;
7761;SDS011;3925;48.636;9.516;2023-02-24T05:54:01;19.23;;;13.40;;
7761;SDS011;3925;48.636;9.516;2023-02-24T05:56:29;15.57;;;13.70;;
7761;SDS011;3925;48.636;9.516;2023-02-24T05:58:58;18.80;;;13.60;;
7761;SDS011;3925;48.636;9.516;2023-02-24T06:01:28;25.47;;;13.63;;
7761;SDS011;3925;48.636;9.516;2023-02-24T06:03:57;19.37;;;14.63;;
7761;SDS011;3925;48.636;9.516;2023-02-24T06:06:30;22.93;;;13.13;;
7761;SDS011;3925;48.636;9.516;2023-02-24T06:08:59;17.10;;;12.53;;
7761;SDS011;3925;48.636;9.516;2023-02-24T06:11:31;30.87;;;15.40;;
7761;SDS011;3925;48.636;9.516;2023-02-24T06:13:58;19.40;;;14.00;;
7761;SDS011;3925;48.636;9.516;2023-02-24T06:16:25;19.10;;;13.00;;
7761;SDS011;3925;48.636;9.516;2023-02-24T06:18:55;20.27;;;13.07;;
7761;SDS011;3925;48.636;9.516;2023-02-24T06:21:22;19.33;;;13.87;;
7761;SDS011;3925;48.636;9.516;2023-02-24T06:23:50;21.13;;;14.57;;
7761;SDS011;3925;48.636;9.516;2023-02-24T06:26:17;22.63;;;14.50;;
7761;SDS011;3925;48.636;9.516;2023-02-24T06:28:45;20.37;;;14.20;;
7761;SDS011;3925;48.636;9.516;2023-02-24T06:31:14;20.83;;;14.97;;
7761;SDS011;3925;48.636;9.516;2023-02-24T06:33:42;23.50;;;16.00;;
7761;SDS011;3925;48.636;9.516;2023-02-24T06:36:09;22.73;;;15.00;;
7761;SDS011;3925;48.636;9.516;2023-02-24T06:38:38;27.47;;;16.50;;
7761;SDS011;3925;48.636;9.516;2023-02-24T06:41:06;25.20;;;16.50;;
7761;SDS011;3925;48.636;9.516;2023-02-24T06:43:36;20.97;;;15.60;;
7761;SDS011;3925;48.636;9.516;2023-02-24T06:46:03;27.63;;;16.60;;
7761;SDS011;3925;48.636;9.516;2023-02-24T06:48:31;26.37;;;16.70;;
7761;SDS011;3925;48.636;9.516;2023-02-24T06:51:03;29.40;;;16.80;;
7761;SDS011;3925;48.636;9.516;2023-02-24T06:53:34;29.67;;;16.77;;
7761;SDS011;3925;48.636;9.516;2023-02-24T06:56:07;22.23;;;15.67;;
7761;SDS011;3925;48.636;9.516;2023-02-24T06:58:38;20.83;;;15.23;;
7761;SDS011;3925;48.636;9.516;2023-02-24T07:01:08;27.20;;;17.27;;
7761;SDS011;3925;48.636;9.516;2023-02-24T07:03:41;26.10;;;17.83;;
7761;SDS011;3925;48.636;9.516;2023-02-24T07:06:28;26.67;;;15.20;;
7761;SDS011;3925;48.636;9.516;2023-02-24T07:08:58;22.83;;;16.47;;
7761;SDS011;3925;48.636;9.516;2023-02-24T07:11:28;33.57;;;18.57;;
7761;SDS011;3925;48.636;9.516;2023-02-24T07:13:56;26.03;;;17.30;;
7761;SDS011;3925;48.636;9.516;2023-02-24T07:16:24;30.70;;;17.70;;
7761;SDS011;3925;48.636;9.516;2023-02-24T07:18:53;27.17;;;18.27;;
7761;SDS011;3925;48.636;9.516;2023-02-24T07:21:21;26.57;;;18.00;;
7761;SDS011;3925;48.636;9.516;2023-02-24T07:23:50;31.27;;;19.50;;
7761;SDS011;3925;48.636;9.516;2023-02-24T07:26:20;30.83;;;19.87;;
7761;SDS011;3925;48.636;9.516;2023-02-24T07:28:48;28.20;;;19.30;;
7761;SDS011;3925;48.636;9.516;2023-02-24T07:31:16;28.00;;;18.57;;
7761;SDS011;3925;48.636;9.516;2023-02-24T07:33:46;31.80;;;19.10;;
7761;SDS011;3925;48.636;9.516;2023-02-24T07:36:15;29.13;;;19.73;;
7761;SDS011;3925;48.636;9.516;2023-02-24T07:38:47;29.17;;;20.30;;
7761;SDS011;3925;48.636;9.516;2023-02-24T07:41:18;28.10;;;18.90;;
7761;SDS011;3925;48.636;9.516;2023-02-24T07:43:46;33.87;;;18.23;;
7761;SDS011;3925;48.636;9.516;2023-02-24T07:46:16;34.03;;;19.20;;
7761;SDS011;3925;48.636;9.516;2023-02-24T07:48:45;33.70;;;19.77;;
7761;SDS011;3925;48.636;9.516;2023-02-24T07:51:13;32.40;;;19.97;;
7761;SDS011;3925;48.636;9.516;2023-02-24T07:53:41;38.43;;;18.57;;
7761;SDS011;3925;48.636;9.516;2023-02-24T07:56:10;33.20;;;19.37;;
7761;SDS011;3925;48.636;9.516;2023-02-24T07:58:41;34.10;;;18.63;;
7761;SDS011;3925;48.636;9.516;2023-02-24T08:01:09;30.50;;;18.50;;
7761;SDS011;3925;48.636;9.516;2023-02-24T08:03:46;31.77;;;18.13;;
7761;SDS011;3925;48.636;9.516;2023-02-24T08:06:14;26.77;;;17.87;;
7761;SDS011;3925;48.636;9.516;2023-02-24T08:08:50;28.27;;;17.67;;
7761;SDS011;3925;48.636;9.516;2023-02-24T08:11:44;34.20;;;20.47;;
7761;SDS011;3925;48.636;9.516;2023-02-24T08:14:16;31.67;;;18.67;;
7761;SDS011;3925;48.636;9.516;2023-02-24T08:16:43;27.57;;;18.17;;
7761;SDS011;3925;48.636;9.516;2023-02-24T08:19:15;26.23;;;17.97;;
7761;SDS011;3925;48.636;9.516;2023-02-24T08:21:45;31.27;;;18.43;;
7761;SDS011;3925;48.636;9.516;2023-02-24T08:24:16;30.60;;;18.00;;
7761;SDS011;3925;48.636;9.516;2023-02-24T08:26:47;27.07;;;17.03;;
7761;SDS011;3925;48.636;9.516;2023-02-24T08:29:28;32.13;;;17.60;;
7761;SDS011;3925;48.636;9.516;2023-02-24T08:31:56;27.77;;;16.87;;
7761;SDS011;3925;48.636;9.516;2023-02-24T08:34:23;25.47;;;17.47;;
7761;SDS011;3925;48.636;9.516;2023-02-24T08:36:55;26.07;;;15.80;;
7761;SDS011;3925;48.636;9.516;2023-02-24T08:39:22;21.53;;;14.90;;
7761;SDS011;3925;48.636;9.516;2023-02-24T08:41:55;26.50;;;15.90;;
7761;SDS011;3925;48.636;9.516;2023-02-24T08:44:23;20.30;;;13.43;;
7761;SDS011;3925;48.636;9.516;2023-02-24T08:46:51;24.70;;;15.60;;
7761;SDS011;3925;48.636;9.516;2023-02-24T08:49:18;18.30;;;13.40;;
7761;SDS011;3925;48.636;9.516;2023-02-24T08:51:49;21.30;;;12.87;;
7761;SDS011;3925;48.636;9.516;2023-02-24T08:54:18;22.13;;;14.63;;
7761;SDS011;3925;48.636;9.516;2023-02-24T08:56:51;20.57;;;14.47;;
7761;SDS011;3925;48.636;9.516;2023-02-24T08:59:22;20.03;;;13.43;;
7761;SDS011;3925;48.636;9.516;2023-02-24T09:02:11;20.57;;;14.03;;
7761;SDS011;3925;48.636;9.516;2023-02-24T09:04:52;24.20;;;16.57;;
7761;SDS011;3925;48.636;9.516;2023-02-24T09:07:21;21.07;;;14.90;;
7761;SDS011;3925;48.636;9.516;2023-02-24T09:09:49;25.60;;;15.07;;
7761;SDS011;3925;48.636;9.516;2023-02-24T09:12:20;20.43;;;15.00;;
7761;SDS011;3925;48.636;9.516;2023-02-24T09:14:51;23.87;;;15.17;;
7761;SDS011;3925;48.636;9.516;2023-02-24T09:17:20;19.57;;;13.77;;
7761;SDS011;3925;48.636;9.516;2023-02-24T09:20:04;23.67;;;16.20;;
7761;SDS011;3925;48.636;9.516;2023-02-24T09:23:10;25.13;;;16.00;;
7761;SDS011;3925;48.636;9.516;2023-02-24T09:25:44;21.87;;;15.10;;
7761;SDS011;3925;48.636;9.516;2023-02-24T09:28:14;23.93;;;16.50;;
7761;SDS011;3925;48.636;9.516;2023-02-24T09:30:44;22.83;;;16.17;;
7761;SDS011;3925;48.636;9.516;2023-02-24T09:33:17;22.17;;;15.10;;
7761;SDS011;3925;48.636;9.516;2023-02-24T09:35:47;19.07;;;13.50;;
7761;SDS011;3925;48.636;9.516;2023-02-24T09:38:17;19.30;;;14.80;;
7761;SDS011;3925;48.636;9.516;2023-02-24T09:41:00;22.93;;;15.53;;
7761;SDS011;3925;48.636;9.516;2023-02-24T09:43:30;24.93;;;15.77;;
7761;SDS011;3925;48.636;9.516;2023-02-24T09:46:10;23.03;;;15.77;;
7761;SDS011;3925;48.636;9.516;2023-02-24T09:48:41;19.13;;;14.10;;
7761;SDS011;3925;48.636;9.516;2023-02-24T09:51:15;21.27;;;13.53;;
7761;SDS011;3925;48.636;9.516;2023-02-24T09:53:53;17.57;;;12.57;;
7761;SDS011;3925;48.636;9.516;2023-02-24T09:56:28;16.53;;;12.60;;
7761;SDS011;3925;48.636;9.516;2023-02-24T09:59:03;20.70;;;14.30;;
7761;SDS011;3925;48.636;9.516;2023-02-24T10:01:39;21.53;;;13.33;;
7761;SDS011;3925;48.636;9.516;2023-02-24T10:04:14;23.50;;;13.20;;
7761;SDS011;3925;48.636;9.516;2023-02-24T10:07:04;25.10;;;15.03;;
7761;SDS011;3925;48.636;9.516;2023-02-24T10:09:37;16.67;;;12.77;;
7761;SDS011;3925;48.636;9.516;2023-02-24T10:12:11;29.57;;;15.93;;
7761;SDS011;3925;48.636;9.516;2023-02-24T10:14:44;20.47;;;14.00;;
7761;SDS011;3925;48.636;9.516;2023-02-24T10:17:19;24.40;;;11.93;;
7761;SDS011;3925;48.636;9.516;2023-02-24T10:19:55;19.93;;;12.27;;
7761;SDS011;3925;48.636;9.516;2023-02-24T10:22:39;17.90;;;11.77;;
7761;SDS011;3925;48.636;9.516;2023-02-24T10:28:05;20.37;;;12.33;;
7761;SDS011;3925;48.636;9.516;2023-02-24T10:30:44;17.33;;;11.50;;
7761;SDS011;3925;48.636;9.516;2023-02-24T10:33:27;16.10;;;11.83;;
7761;SDS011;3925;48.636;9.516;2023-02-24T10:36:05;16.00;;;11.90;;
7761;SDS011;3925;48.636;9.516;2023-02-24T10:38:36;19.23;;;10.87;;
7761;SDS011;3925;48.636;9.516;2023-02-24T10:41:09;16.63;;;9.50;;
7761;SDS011;3925;48.636;9.516;2023-02-24T10:43:37;12.37;;;10.03;;
7761;SDS011;3925;48.636;9.516;2023-02-24T10:46:17;16.07;;;9.93;;
7761;SDS011;3925;48.636;9.516;2023-02-24T10:48:53;12.30;;;9.40;;
7761;SDS011;3925;48.636;9.516;2023-02-24T10:51:30;17.03;;;10.50;;
7761;SDS011;3925;48.636;9.516;2023-02-24T10:54:09;12.40;;;9.67;;
7761;SDS011;3925;48.636;9.516;2023-02-24T10:56:55;12.40;;;8.80;;
7761;SDS011;3925;48.636;9.516;2023-02-24T10:59:41;15.80;;;9.57;;
7761;SDS011;3925;48.636;9.516;2023-02-24T11:02:45;14.93;;;10.40;;
7761;SDS011;3925;48.636;9.516;2023-02-24T11:05:36;14.50;;;9.70;;
7761;SDS011;3925;48.636;9.516;2023-02-24T11:08:29;19.83;;;11.13;;
7761;SDS011;3925;48.636;9.516;2023-02-24T11:11:20;13.43;;;10.17;;
7761;SDS011;3925;48.636;9.516;2023-02-24T11:13:54;16.63;;;11.03;;
7761;SDS011;3925;48.636;9.516;2023-02-24T11:16:42;13.87;;;9.90;;
7761;SDS011;3925;48.636;9.516;2023-02-24T11:19:28;16.80;;;10.23;;
7761;SDS011;3925;48.636;9.516;2023-02-24T11:21:58;14.70;;;10.20;;
7761;SDS011;3925;48.636;9.516;2023-02-24T11:24:27;17.93;;;11.33;;
7761;SDS011;3925;48.636;9.516;2023-02-24T11:26:54;15.57;;;9.93;;
7761;SDS011;3925;48.636;9.516;2023-02-24T11:29:25;19.70;;;11.03;;
7761;SDS011;3925;48.636;9.516;2023-02-24T11:32:07;12.37;;;9.00;;
7761;SDS011;3925;48.636;9.516;2023-02-24T11:34:48;16.20;;;10.30;;
7761;SDS011;3925;48.636;9.516;2023-02-24T11:37:30;20.00;;;10.97;;
7761;SDS011;3925;48.636;9.516;2023-02-24T11:40:04;15.50;;;9.77;;
7761;SDS011;3925;48.636;9.516;2023-02-24T11:42:38;11.40;;;10.03;;
7761;SDS011;3925;48.636;9.516;2023-02-24T11:45:11;14.23;;;10.40;;
7761;SDS011;3925;48.636;9.516;2023-02-24T11:47:48;14.93;;;8.77;;
7761;SDS011;3925;48.636;9.516;2023-02-24T11:50:24;12.60;;;9.23;;
7761;SDS011;3925;48.636;9.516;2023-02-24T11:52:57;12.77;;;7.93;;
7761;SDS011;3925;48.636;9.516;2023-02-24T11:55:27;15.13;;;10.00;;
7761;SDS011;3925;48.636;9.516;2023-02-24T11:57:59;10.17;;;8.27;;
7761;SDS011;3925;48.636;9.516;2023-02-24T12:00:32;15.93;;;9.30;;
7761;SDS011;3925;48.636;9.516;2023-02-24T12:03:03;15.83;;;9.93;;
7761;SDS011;3925;48.636;9.516;2023-02-24T12:05:38;13.77;;;9.40;;
7761;SDS011;3925;48.636;9.516;2023-02-24T12:08:11;15.70;;;9.93;;
7761;SDS011;3925;48.636;9.516;2023-02-24T12:10:48;17.10;;;10.17;;
7761;SDS011;3925;48.636;9.516;2023-02-24T12:13:18;25.70;;;9.47;;
7761;SDS011;3925;48.636;9.516;2023-02-24T12:15:54;14.10;;;9.17;;
7761;SDS011;3925;48.636;9.516;2023-02-24T12:18:29;12.80;;;8.07;;
7761;SDS011;3925;48.636;9.516;2023-02-24T12:20:59;14.03;;;8.67;;
7761;SDS011;3925;48.636;9.516;2023-02-24T12:23:32;12.50;;;9.33;;
7761;SDS011;3925;48.636;9.516;2023-02-24T12:26:10;13.90;;;8.70;;
7761;SDS011;3925;48.636;9.516;2023-02-24T12:28:57;14.90;;;8.67;;
7761;SDS011;3925;48.636;9.516;2023-02-24T12:31:42;16.63;;;7.77;;
7761;SDS011;3925;48.636;9.516;2023-02-24T12:34:19;12.77;;;8.20;;
7761;SDS011;3925;48.636;9.516;2023-02-24T12:37:02;15.73;;;9.00;;
7761;SDS011;3925;48.636;9.516;2023-02-24T12:39:50;13.20;;;8.63;;
7761;SDS011;3925;48.636;9.516;2023-02-24T12:42:29;12.07;;;7.70;;
7761;SDS011;3925;48.636;9.516;2023-02-24T12:45:07;13.07;;;7.63;;
7761;SDS011;3925;48.636;9.516;2023-02-24T12:47:43;11.53;;;7.47;;
7761;SDS011;3925;48.636;9.516;2023-02-24T12:50:21;11.17;;;7.57;;
7761;SDS011;3925;48.636;9.516;2023-02-24T12:52:58;11.53;;;8.13;;
7761;SDS011;3925;48.636;9.516;2023-02-24T12:55:35;11.53;;;7.60;;
7761;SDS011;3925;48.636;9.516;2023-02-24T12:58:09;18.07;;;8.70;;
7761;SDS011;3925;48.636;9.516;2023-02-24T13:00:45;14.77;;;7.57;;
7761;SDS011;3925;48.636;9.516;2023-02-24T13:03:22;10.57;;;7.00;;
7761;SDS011;3925;48.636;9.516;2023-02-24T13:06:00;10.10;;;6.77;;
7761;SDS011;3925;48.636;9.516;2023-02-24T13:08:35;15.40;;;7.40;;
7761;SDS011;3925;48.636;9.516;2023-02-24T13:11:12;11.67;;;7.97;;
7761;SDS011;3925;48.636;9.516;2023-02-24T13:13:54;15.23;;;7.87;;
7761;SDS011;3925;48.636;9.516;2023-02-24T13:16:28;11.20;;;7.77;;
7761;SDS011;3925;48.636;9.516;2023-02-24T13:19:03;11.60;;;5.90;;
7761;SDS011;3925;48.636;9.516;2023-02-24T13:21:31;10.47;;;6.30;;
7761;SDS011;3925;48.636;9.516;2023-02-24T13:23:59;15.27;;;6.90;;
7761;SDS011;3925;48.636;9.516;2023-02-24T13:26:29;9.63;;;7.30;;
7761;SDS011;3925;48.636;9.516;2023-02-24T13:28:58;13.87;;;7.00;;
7761;SDS011;3925;48.636;9.516;2023-02-24T13:31:37;12.57;;;7.03;;
7761;SDS011;3925;48.636;9.516;2023-02-24T13:34:11;12.57;;;6.70;;
7761;SDS011;3925;48.636;9.516;2023-02-24T13:36:44;12.23;;;7.30;;
7761;SDS011;3925;48.636;9.516;2023-02-24T13:39:19;8.40;;;6.77;;
7761;SDS011;3925;48.636;9.516;2023-02-24T13:41:49;11.70;;;7.27;;
7761;SDS011;3925;48.636;9.516;2023-02-24T13:44:28;17.30;;;7.20;;
7761;SDS011;3925;48.636;9.516;2023-02-24T13:49:56;10.17;;;7.70;;
7761;SDS011;3925;48.636;9.516;2023-02-24T13:52:35;12.13;;;6.80;;
7761;SDS011;3925;48.636;9.516;2023-02-24T13:55:17;9.43;;;5.80;;
7761;SDS011;3925;48.636;9.516;2023-02-24T13:58:01;13.37;;;7.17;;
7761;SDS011;3925;48.636;9.516;2023-02-24T14:00:48;9.00;;;6.70;;
7761;SDS011;3925;48.636;9.516;2023-02-24T14:03:26;11.30;;;6.20;;
7761;SDS011;3925;48.636;9.516;2023-02-24T14:05:54;12.50;;;6.40;;
7761;SDS011;3925;48.636;9.516;2023-02-24T14:08:28;22.17;;;9.50;;
7761;SDS011;3925;48.636;9.516;2023-02-24T14:11:03;14.60;;;6.43;;
7761;SDS011;3925;48.636;9.516;2023-02-24T14:13:37;8.90;;;6.37;;
7761;SDS011;3925;48.636;9.516;2023-02-24T14:16:05;10.57;;;6.93;;
7761;SDS011;3925;48.636;9.516;2023-02-24T14:18:34;10.00;;;6.47;;
7761;SDS011;3925;48.636;9.516;2023-02-24T14:21:02;14.37;;;6.93;;
7761;SDS011;3925;48.636;9.516;2023-02-24T14:23:30;12.20;;;6.90;;
7761;SDS011;3925;48.636;9.516;2023-02-24T14:26:00;8.93;;;6.87;;
7761;SDS011;3925;48.636;9.516;2023-02-24T14:28:29;10.00;;;6.90;;
7761;SDS011;3925;48.636;9.516;2023-02-24T14:30:59;12.10;;;7.17;;
7761;SDS011;3925;48.636;9.516;2023-02-24T14:33:29;15.73;;;8.97;;
7761;SDS011;3925;48.636;9.516;2023-02-24T14:35:57;14.60;;;6.67;;
7761;SDS011;3925;48.636;9.516;2023-02-24T14:38:26;13.23;;;5.97;;
7761;SDS011;3925;48.636;9.516;2023-02-24T14:40:58;10.33;;;7.47;;
7761;SDS011;3925;48.636;9.516;2023-02-24T14:43:26;11.47;;;8.70;;
7761;SDS011;3925;48.636;9.516;2023-02-24T14:45:53;9.40;;;6.90;;
7761;SDS011;3925;48.636;9.516;2023-02-24T14:48:26;8.87;;;6.80;;
7761;SDS011;3925;48.636;9.516;2023-02-24T14:50:54;11.17;;;7.37;;
7761;SDS011;3925;48.636;9.516;2023-02-24T14:53:25;11.90;;;8.00;;
7761;SDS011;3925;48.636;9.516;2023-02-24T14:55:54;11.53;;;6.60;;
7761;SDS011;3925;48.636;9.516;2023-02-24T14:58:23;10.43;;;7.77;;
7761;SDS011;3925;48.636;9.516;2023-02-24T15:00:55;12.13;;;7.47;;
7761;SDS011;3925;48.636;9.516;2023-02-24T15:03:27;12.03;;;7.20;;
7761;SDS011;3925;48.636;9.516;2023-02-24T15:05:58;12.83;;;7.53;;
7761;SDS011;3925;48.636;9.516;2023-02-24T15:08:29;15.47;;;7.40;;
7761;SDS011;3925;48.636;9.516;2023-02-24T15:10:59;11.70;;;7.00;;
7761;SDS011;3925;48.636;9.516;2023-02-24T15:13:33;21.53;;;8.60;;
7761;SDS011;3925;48.636;9.516;2023-02-24T15:16:04;12.57;;;8.67;;
7761;SDS011;3925;48.636;9.516;2023-02-24T15:18:37;10.90;;;6.87;;
7761;SDS011;3925;48.636;9.516;2023-02-24T15:21:05;14.20;;;9.67;;
7761;SDS011;3925;48.636;9.516;2023-02-24T15:23:33;12.63;;;8.50;;
7761;SDS011;3925;48.636;9.516;2023-02-24T15:26:02;11.70;;;8.10;;
7761;SDS011;3925;48.636;9.516;2023-02-24T15:28:33;10.60;;;8.30;;
7761;SDS011;3925;48.636;9.516;2023-02-24T15:31:02;13.50;;;7.93;;
7761;SDS011;3925;48.636;9.516;2023-02-24T15:33:33;13.20;;;8.50;;
7761;SDS011;3925;48.636;9.516;2023-02-24T15:36:06;16.17;;;8.60;;